createdAt,value
2017-06-22T00:01:04.987Z,17.9
2017-06-22T00:02:13.875Z,17.87
2017-06-22T00:03:22.768Z,17.9
2017-06-22T00:04:32.180Z,17.87
2017-06-22T00:05:41.071Z,17.89
2017-06-22T00:06:50.608Z,17.84
2017-06-22T00:07:59.503Z,17.86
2017-06-22T00:09:08.715Z,17.86
2017-06-22T00:10:18.131Z,17.81
2017-06-22T00:11:27.343Z,17.81
2017-06-22T00:12:36.235Z,17.86
2017-06-22T00:13:45.122Z,17.79
2017-06-22T00:14:54.014Z,17.79
2017-06-22T00:16:03.156Z,17.9
2017-06-22T00:17:12.698Z,17.78
2017-06-22T00:18:21.592Z,17.78
2017-06-22T00:19:30.805Z,17.75
2017-06-22T00:20:40.022Z,17.66
2017-06-22T00:21:48.963Z,17.78
2017-06-22T00:22:57.853Z,17.68
2017-06-22T00:24:07.744Z,17.71
2017-06-22T00:25:16.960Z,17.66
2017-06-22T00:26:25.848Z,17.66
2017-06-22T00:27:35.387Z,17.64
2017-06-22T00:28:44.607Z,17.68
2017-06-22T00:29:53.494Z,17.66
2017-06-22T00:31:02.384Z,17.66
2017-06-22T00:32:11.276Z,17.68
2017-06-22T00:33:20.315Z,17.56
2017-06-22T00:34:29.206Z,17.54
2017-06-22T00:35:38.093Z,17.62
2017-06-22T00:36:46.984Z,17.52
2017-06-22T00:37:55.877Z,17.63
2017-06-22T00:39:05.094Z,17.54
2017-06-22T00:40:14.636Z,17.48
2017-06-22T00:41:23.528Z,17.41
2017-06-22T00:42:32.422Z,17.41
2017-06-22T00:43:41.315Z,17.37
2017-06-22T00:44:50.455Z,17.41
2017-06-22T00:45:59.665Z,17.41
2017-06-22T00:47:08.556Z,17.37
2017-06-22T00:48:17.454Z,17.3
2017-06-22T00:49:26.343Z,17.31
2017-06-22T00:50:35.654Z,17.33
2017-06-22T00:51:44.541Z,17.28
2017-06-22T00:52:53.749Z,17.3
2017-06-22T00:54:02.662Z,17.31
2017-06-22T00:55:11.555Z,17.3
2017-06-22T00:56:20.597Z,17.25
2017-06-22T00:57:29.490Z,17.25
2017-06-22T00:58:38.389Z,17.23
2017-06-22T00:59:47.278Z,17.21
2017-06-22T01:00:56.170Z,17.25
2017-06-22T01:02:05.309Z,17.18
2017-06-22T01:03:14.519Z,17.19
2017-06-22T01:04:23.412Z,17.16
2017-06-22T01:05:32.300Z,17.19
2017-06-22T01:06:41.199Z,17.16
2017-06-22T01:07:50.714Z,17.06
2017-06-22T01:08:59.934Z,17.12
2017-06-22T01:10:09.158Z,17.04
2017-06-22T01:11:18.045Z,17.11
2017-06-22T01:12:26.929Z,17.08
2017-06-22T01:13:36.192Z,17.11
2017-06-22T01:14:45.087Z,17.16
2017-06-22T01:15:54.036Z,16.96
2017-06-22T01:17:02.932Z,17
2017-06-22T01:18:11.825Z,17
2017-06-22T01:19:20.863Z,16.98
2017-06-22T01:20:29.753Z,16.97
2017-06-22T01:21:38.646Z,16.86
2017-06-22T01:22:47.869Z,16.97
2017-06-22T01:23:57.082Z,16.96
2017-06-22T01:25:06.072Z,16.94
2017-06-22T01:26:14.963Z,16.94
2017-06-22T01:27:23.851Z,16.97
2017-06-22T01:28:32.742Z,16.88
2017-06-22T01:29:41.634Z,16.89
2017-06-22T01:30:50.855Z,16.93
2017-06-22T01:31:59.746Z,16.93
2017-06-22T01:33:08.636Z,16.91
2017-06-22T01:34:17.523Z,16.86
2017-06-22T01:35:26.739Z,16.79
2017-06-22T01:36:35.729Z,16.85
2017-06-22T01:37:44.619Z,16.85
2017-06-22T01:38:53.832Z,16.85
2017-06-22T01:40:02.721Z,16.82
2017-06-22T01:41:11.614Z,16.85
2017-06-22T01:42:20.657Z,16.78
2017-06-22T01:43:29.543Z,16.76
2017-06-22T01:44:38.429Z,16.76
2017-06-22T01:45:47.316Z,16.76
2017-06-22T01:46:56.208Z,16.78
2017-06-22T01:48:05.199Z,16.78
2017-06-22T01:49:14.090Z,16.75
2017-06-22T01:50:22.981Z,16.73
2017-06-22T01:51:32.196Z,16.78
2017-06-22T01:52:41.083Z,16.73
2017-06-22T01:53:50.023Z,16.73
2017-06-22T01:54:58.913Z,16.68
2017-06-22T01:56:08.127Z,16.66
2017-06-22T01:57:17.670Z,16.75
2017-06-22T01:58:26.559Z,16.7
2017-06-22T01:59:35.821Z,16.73
2017-06-22T02:00:45.037Z,16.67
2017-06-22T02:01:53.923Z,16.63
2017-06-22T02:03:02.816Z,16.66
2017-06-22T02:04:11.707Z,16.64
2017-06-22T02:05:20.747Z,16.63
2017-06-22T02:06:29.636Z,16.66
2017-06-22T02:07:38.524Z,16.61
2017-06-22T02:08:47.413Z,16.61
2017-06-22T02:09:56.302Z,16.64
2017-06-22T02:11:05.846Z,16.57
2017-06-22T02:12:15.058Z,16.6
2017-06-22T02:13:24.278Z,16.64
2017-06-22T02:14:33.164Z,16.57
2017-06-22T02:15:42.105Z,16.63
2017-06-22T02:16:51.470Z,16.56
2017-06-22T02:18:00.360Z,16.43
2017-06-22T02:19:09.253Z,16.5
2017-06-22T02:20:18.142Z,16.5
2017-06-22T02:21:27.034Z,16.48
2017-06-22T02:22:36.025Z,16.5
2017-06-22T02:23:44.918Z,16.48
2017-06-22T02:24:53.805Z,16.48
2017-06-22T02:26:03.016Z,16.48
2017-06-22T02:27:11.905Z,16.33
2017-06-22T02:28:21.116Z,16.39
2017-06-22T02:29:30.012Z,16.41
2017-06-22T02:30:38.901Z,16.39
2017-06-22T02:31:48.113Z,16.38
2017-06-22T02:32:57.323Z,16.35
2017-06-22T02:34:06.698Z,16.39
2017-06-22T02:35:15.911Z,16.35
2017-06-22T02:36:25.130Z,16.31
2017-06-22T02:37:34.024Z,16.35
2017-06-22T02:38:42.914Z,16.33
2017-06-22T02:39:52.434Z,16.34
2017-06-22T02:41:01.325Z,16.31
2017-06-22T02:42:10.539Z,16.34
2017-06-22T02:43:19.751Z,16.31
2017-06-22T02:44:28.643Z,16.34
2017-06-22T02:45:38.331Z,16.31
2017-06-22T02:46:47.872Z,16.34
2017-06-22T02:47:57.091Z,16.27
2017-06-22T02:49:06.305Z,16.28
2017-06-22T02:50:15.198Z,16.27
2017-06-22T02:51:24.244Z,16.24
2017-06-22T02:52:33.133Z,16.27
2017-06-22T02:53:42.021Z,16.24
2017-06-22T02:54:50.911Z,16.27
2017-06-22T02:56:00.129Z,16.23
2017-06-22T02:57:09.268Z,16.24
2017-06-22T02:58:18.155Z,16.25
2017-06-22T02:59:27.374Z,16.23
2017-06-22T03:00:36.591Z,16.28
2017-06-22T03:01:45.483Z,16.25
2017-06-22T03:02:54.851Z,16.3
2017-06-22T03:04:04.069Z,16.15
2017-06-22T03:05:12.956Z,16.23
2017-06-22T03:06:21.848Z,16.25
2017-06-22T03:07:30.733Z,16.25
2017-06-22T03:08:39.674Z,16.21
2017-06-22T03:09:48.561Z,16.28
2017-06-22T03:10:57.777Z,16.25
2017-06-22T03:12:07.336Z,16.23
2017-06-22T03:13:16.553Z,16.21
2017-06-22T03:14:25.444Z,16.27
2017-06-22T03:15:34.339Z,16.28
2017-06-22T03:16:43.557Z,16.15
2017-06-22T03:17:53.095Z,16.25
2017-06-22T03:19:02.314Z,16.17
2017-06-22T03:20:11.679Z,16.17
2017-06-22T03:21:20.567Z,16.14
2017-06-22T03:22:29.458Z,16.15
2017-06-22T03:23:38.375Z,16.14
2017-06-22T03:24:47.589Z,16.08
2017-06-22T03:25:56.905Z,16.17
2017-06-22T03:27:06.132Z,16.23
2017-06-22T03:28:15.346Z,16.2
2017-06-22T03:29:24.560Z,16.12
2017-06-22T03:30:33.449Z,16.25
2017-06-22T03:31:42.441Z,16.28
2017-06-22T03:32:51.328Z,16.3
2017-06-22T03:34:00.266Z,16.34
2017-06-22T03:35:09.157Z,16.25
2017-06-22T03:36:18.046Z,16.27
2017-06-22T03:37:27.035Z,16.35
2017-06-22T03:38:36.248Z,16.38
2017-06-22T03:39:45.139Z,16.35
2017-06-22T03:40:54.039Z,16.45
2017-06-22T03:42:02.930Z,16.39
2017-06-22T03:43:11.919Z,16.48
2017-06-22T03:44:20.806Z,16.48
2017-06-22T03:45:29.703Z,16.43
2017-06-22T03:46:38.915Z,16.45
2017-06-22T03:47:48.131Z,16.45
2017-06-22T03:48:57.393Z,16.63
2017-06-22T03:50:06.283Z,16.57
2017-06-22T03:51:15.171Z,16.63
2017-06-22T03:52:24.061Z,16.61
2017-06-22T03:53:33.622Z,16.56
2017-06-22T03:54:42.983Z,16.56
2017-06-22T03:55:51.869Z,16.57
2017-06-22T03:57:00.757Z,16.71
2017-06-22T03:58:09.666Z,16.58
2017-06-22T03:59:18.888Z,16.66
2017-06-22T04:00:28.202Z,16.68
2017-06-22T04:01:37.094Z,16.63
2017-06-22T04:02:45.980Z,16.7
2017-06-22T04:03:54.868Z,16.68
2017-06-22T04:05:03.754Z,16.68
2017-06-22T04:06:12.644Z,16.75
2017-06-22T04:07:21.854Z,16.7
2017-06-22T04:08:30.749Z,16.78
2017-06-22T04:09:40.286Z,16.76
2017-06-22T04:10:49.174Z,16.75
2017-06-22T04:11:58.214Z,16.79
2017-06-22T04:13:07.105Z,16.76
2017-06-22T04:14:15.995Z,16.76
2017-06-22T04:15:24.886Z,16.81
2017-06-22T04:16:34.105Z,16.73
2017-06-22T04:17:43.145Z,16.7
2017-06-22T04:18:52.040Z,16.71
2017-06-22T04:20:00.927Z,16.78
2017-06-22T04:21:09.814Z,16.82
2017-06-22T04:22:18.702Z,16.71
2017-06-22T04:23:27.919Z,16.73
2017-06-22T04:24:37.132Z,16.76
2017-06-22T04:25:46.022Z,16.75
2017-06-22T04:26:55.237Z,16.7
2017-06-22T04:28:04.772Z,16.86
2017-06-22T04:29:14.139Z,16.93
2017-06-22T04:30:23.030Z,16.89
2017-06-22T04:31:31.939Z,16.86
2017-06-22T04:32:41.153Z,16.93
2017-06-22T04:33:50.040Z,16.97
2017-06-22T04:34:58.978Z,16.91
2017-06-22T04:36:07.866Z,16.97
2017-06-22T04:37:16.756Z,16.97
2017-06-22T04:38:25.647Z,16.88
2017-06-22T04:39:34.536Z,16.94
2017-06-22T04:40:43.899Z,16.88
2017-06-22T04:41:53.110Z,17.03
2017-06-22T04:43:02.323Z,17.04
2017-06-22T04:44:11.214Z,17.03
2017-06-22T04:45:20.432Z,16.93
2017-06-22T04:46:29.479Z,16.91
2017-06-22T04:47:38.369Z,17.03
2017-06-22T04:48:47.289Z,17.01
2017-06-22T04:49:56.502Z,17.07
2017-06-22T04:51:05.719Z,17.15
2017-06-22T04:52:14.766Z,17.12
2017-06-22T04:53:23.658Z,17.12
2017-06-22T04:54:32.552Z,17.16
2017-06-22T04:55:41.445Z,17.19
2017-06-22T04:56:50.335Z,17.16
2017-06-22T04:57:59.371Z,17.21
2017-06-22T04:59:08.313Z,17.16
2017-06-22T05:00:18.178Z,17.19
2017-06-22T05:01:27.395Z,17.18
2017-06-22T05:02:36.285Z,17.18
2017-06-22T05:03:45.606Z,17.23
2017-06-22T05:04:54.821Z,17.22
2017-06-22T05:06:03.718Z,17.19
2017-06-22T05:07:12.610Z,17.12
2017-06-22T05:08:22.145Z,17.18
2017-06-22T05:09:31.737Z,17.18
2017-06-22T05:10:40.632Z,17.16
2017-06-22T05:11:49.847Z,17.08
2017-06-22T05:12:58.736Z,17.18
2017-06-22T05:14:07.625Z,17.06
2017-06-22T05:15:16.815Z,17.19
2017-06-22T05:16:25.706Z,17.15
2017-06-22T05:17:34.924Z,17.15
2017-06-22T05:18:44.136Z,17.21
2017-06-22T05:19:53.351Z,17.18
2017-06-22T05:21:02.973Z,17.31
2017-06-22T05:22:12.192Z,17.26
2017-06-22T05:23:21.411Z,17.36
2017-06-22T05:24:30.301Z,17.34
2017-06-22T05:25:39.193Z,17.37
2017-06-22T05:26:48.234Z,17.38
2017-06-22T05:27:57.451Z,17.31
2017-06-22T05:29:06.671Z,17.33
2017-06-22T05:30:15.558Z,17.3
2017-06-22T05:31:24.452Z,17.31
2017-06-22T05:32:33.919Z,17.33
2017-06-22T05:33:43.134Z,17.4
2017-06-22T05:34:52.027Z,17.4
2017-06-22T05:36:01.246Z,17.41
2017-06-22T05:37:10.140Z,17.49
2017-06-22T05:38:19.181Z,17.46
2017-06-22T05:39:28.399Z,17.54
2017-06-22T05:40:37.294Z,17.55
2017-06-22T05:41:46.189Z,17.52
2017-06-22T05:42:55.089Z,17.56
2017-06-22T05:44:04.027Z,17.63
2017-06-22T05:45:13.264Z,17.68
2017-06-22T05:46:22.285Z,17.63
2017-06-22T05:47:31.828Z,17.75
2017-06-22T05:48:40.719Z,17.68
2017-06-22T05:49:49.661Z,17.75
2017-06-22T05:50:58.552Z,17.82
2017-06-22T05:52:07.443Z,17.87
2017-06-22T05:53:16.337Z,17.9
2017-06-22T05:54:25.228Z,17.93
2017-06-22T05:55:34.541Z,17.99
2017-06-22T05:56:43.761Z,18
2017-06-22T05:57:52.650Z,18.05
2017-06-22T05:59:01.542Z,18.11
2017-06-22T06:00:10.440Z,18.14
2017-06-22T06:01:19.806Z,18.21
2017-06-22T06:02:29.348Z,18.2
2017-06-22T06:03:38.242Z,18.2
2017-06-22T06:04:47.133Z,18.08
2017-06-22T06:05:56.033Z,18.32
2017-06-22T06:07:05.077Z,18.32
2017-06-22T06:08:14.294Z,18.3
2017-06-22T06:09:23.184Z,18.3
2017-06-22T06:10:32.078Z,18.33
2017-06-22T06:11:40.973Z,18.37
2017-06-22T06:12:50.346Z,18.48
2017-06-22T06:13:59.243Z,18.52
2017-06-22T06:15:08.469Z,18.42
2017-06-22T06:16:17.359Z,18.5
2017-06-22T06:17:26.279Z,18.57
2017-06-22T06:18:35.600Z,18.65
2017-06-22T06:19:44.561Z,18.66
2017-06-22T06:20:53.477Z,18.67
2017-06-22T06:22:02.371Z,18.69
2017-06-22T06:23:11.916Z,18.73
2017-06-22T06:24:21.331Z,18.85
2017-06-22T06:25:30.221Z,18.84
2017-06-22T06:26:39.119Z,18.99
2017-06-22T06:27:48.010Z,18.88
2017-06-22T06:28:57.228Z,18.91
2017-06-22T06:30:07.166Z,18.87
2017-06-22T06:31:16.068Z,19.11
2017-06-22T06:32:25.283Z,19.25
2017-06-22T06:33:34.830Z,19.22
2017-06-22T06:34:43.723Z,19.37
2017-06-22T06:35:52.674Z,19.4
2017-06-22T06:37:01.566Z,19.43
2017-06-22T06:38:10.461Z,19.43
2017-06-22T06:39:19.355Z,19.41
2017-06-22T06:40:28.253Z,19.4
2017-06-22T06:41:37.195Z,19.41
2017-06-22T06:42:46.091Z,19.46
2017-06-22T06:43:55.314Z,19.55
2017-06-22T06:45:04.546Z,19.62
2017-06-22T06:46:13.451Z,19.59
2017-06-22T06:47:22.544Z,19.73
2017-06-22T06:48:31.439Z,19.69
2017-06-22T06:49:40.333Z,19.84
2017-06-22T06:50:49.275Z,19.83
2017-06-22T06:51:58.169Z,19.94
2017-06-22T06:53:07.561Z,19.99
2017-06-22T06:54:16.451Z,19.94
2017-06-22T06:55:25.343Z,20.03
2017-06-22T06:56:34.574Z,20.06
2017-06-22T06:57:43.816Z,20.08
2017-06-22T06:58:53.016Z,20.14
2017-06-22T07:00:01.909Z,20.16
2017-06-22T07:01:11.452Z,20.13
2017-06-22T07:02:20.348Z,20.21
2017-06-22T07:03:29.241Z,20.33
2017-06-22T07:04:38.608Z,20.35
2017-06-22T07:05:47.828Z,20.47
2017-06-22T07:06:57.047Z,20.52
2017-06-22T07:08:05.945Z,20.55
2017-06-22T07:09:15.162Z,20.69
2017-06-22T07:10:24.156Z,20.7
2017-06-22T07:11:33.375Z,20.73
2017-06-22T07:12:42.269Z,20.82
2017-06-22T07:13:51.163Z,20.84
2017-06-22T07:15:00.385Z,20.8
2017-06-22T07:16:09.379Z,20.88
2017-06-22T07:17:18.600Z,20.94
2017-06-22T07:18:27.492Z,21.12
2017-06-22T07:19:36.387Z,21.13
2017-06-22T07:20:45.607Z,21.27
2017-06-22T07:21:54.754Z,21.35
2017-06-22T07:23:03.657Z,21.37
2017-06-22T07:24:12.879Z,21.49
2017-06-22T07:25:21.780Z,21.44
2017-06-22T07:26:30.672Z,21.5
2017-06-22T07:27:39.866Z,21.47
2017-06-22T07:28:49.409Z,21.64
2017-06-22T07:29:58.302Z,21.59
2017-06-22T07:31:07.520Z,21.77
2017-06-22T07:32:16.415Z,21.8
2017-06-22T07:33:25.313Z,21.91
2017-06-22T07:34:34.532Z,22
2017-06-22T07:35:43.748Z,22.06
2017-06-22T07:36:52.642Z,22.17
2017-06-22T07:38:01.861Z,22.25
2017-06-22T07:39:10.907Z,22.35
2017-06-22T07:40:20.134Z,22.37
2017-06-22T07:41:30.007Z,22.52
2017-06-22T07:42:39.227Z,22.62
2017-06-22T07:43:48.446Z,22.64
2017-06-22T07:44:57.488Z,22.7
2017-06-22T07:46:06.384Z,22.73
2017-06-22T07:47:15.280Z,22.77
2017-06-22T07:48:24.178Z,22.7
2017-06-22T07:49:33.398Z,22.73
2017-06-22T07:50:42.494Z,22.88
2017-06-22T07:51:51.393Z,22.83
2017-06-22T07:53:00.614Z,22.97
2017-06-22T07:54:09.508Z,22.91
2017-06-22T07:55:18.402Z,22.98
2017-06-22T07:56:27.455Z,23.01
2017-06-22T07:57:36.362Z,23.1
2017-06-22T07:58:45.264Z,23.23
2017-06-22T07:59:54.487Z,23.33
2017-06-22T08:01:03.390Z,23.43
2017-06-22T08:02:12.337Z,23.48
2017-06-22T08:03:21.236Z,23.5
2017-06-22T08:04:30.143Z,23.51
2017-06-22T08:05:39.046Z,23.63
2017-06-22T08:06:48.266Z,23.7
2017-06-22T08:07:57.313Z,23.7
2017-06-22T08:09:06.226Z,23.72
2017-06-22T08:10:15.134Z,23.9
2017-06-22T08:11:24.059Z,23.78
2017-06-22T08:12:32.954Z,23.79
2017-06-22T08:13:42.099Z,23.94
2017-06-22T08:14:51.324Z,24.08
2017-06-22T08:16:00.224Z,24.18
2017-06-22T08:17:09.126Z,24.18
2017-06-22T08:18:18.353Z,24.22
2017-06-22T08:19:27.395Z,24.39
2017-06-22T08:20:36.294Z,24.37
2017-06-22T08:21:45.197Z,24.45
2017-06-22T08:22:54.422Z,24.53
2017-06-22T08:24:03.319Z,24.71
2017-06-22T08:25:12.692Z,24.8
2017-06-22T08:26:21.918Z,24.9
2017-06-22T08:27:30.813Z,24.9
2017-06-22T08:28:39.713Z,25.02
2017-06-22T08:29:48.937Z,25.1
2017-06-22T08:30:58.161Z,25.21
2017-06-22T08:32:07.712Z,25.42
2017-06-22T08:33:16.612Z,25.35
2017-06-22T08:34:25.519Z,25.42
2017-06-22T08:35:34.738Z,25.43
2017-06-22T08:36:43.685Z,25.4
2017-06-22T08:37:52.581Z,25.39
2017-06-22T08:39:01.480Z,25.39
2017-06-22T08:40:10.708Z,25.28
2017-06-22T08:41:19.611Z,25.33
2017-06-22T08:42:28.561Z,25.21
2017-06-22T08:43:38.109Z,25.23
2017-06-22T08:44:47.331Z,25.18
2017-06-22T08:45:56.232Z,25.18
2017-06-22T08:47:05.454Z,25.18
2017-06-22T08:48:14.505Z,25.24
2017-06-22T08:49:23.403Z,25.13
2017-06-22T08:50:32.297Z,25.05
2017-06-22T08:51:41.521Z,25.08
2017-06-22T08:52:50.746Z,25.1
2017-06-22T08:53:59.792Z,25.13
2017-06-22T08:55:08.699Z,25.15
2017-06-22T08:56:17.607Z,25
2017-06-22T08:57:26.513Z,25.08
2017-06-22T08:58:35.743Z,25.2
2017-06-22T08:59:44.964Z,25.21
2017-06-22T09:00:53.876Z,25.32
2017-06-22T09:02:02.773Z,25.3
2017-06-22T09:03:12.001Z,25.4
2017-06-22T09:04:20.921Z,25.32
2017-06-22T09:05:29.973Z,25.39
2017-06-22T09:06:38.871Z,25.46
2017-06-22T09:07:47.770Z,25.45
2017-06-22T09:08:56.697Z,25.51
2017-06-22T09:10:05.593Z,25.62
2017-06-22T09:11:15.191Z,25.64
2017-06-22T09:12:24.421Z,25.79
2017-06-22T09:13:33.322Z,25.83
2017-06-22T09:14:42.543Z,25.8
2017-06-22T09:15:51.441Z,25.94
2017-06-22T09:17:00.742Z,26.05
2017-06-22T09:18:09.642Z,26.09
2017-06-22T09:19:18.882Z,26.09
2017-06-22T09:20:28.430Z,26.15
2017-06-22T09:21:37.332Z,26.26
2017-06-22T09:22:46.707Z,26.45
2017-06-22T09:23:55.607Z,26.5
2017-06-22T09:25:04.831Z,26.62
2017-06-22T09:26:13.734Z,26.69
2017-06-22T09:27:22.632Z,26.89
2017-06-22T09:28:31.636Z,26.92
2017-06-22T09:29:40.538Z,27.02
2017-06-22T09:30:49.440Z,27.13
2017-06-22T09:31:58.342Z,27.19
2017-06-22T09:33:07.243Z,27.21
2017-06-22T09:34:16.802Z,27.19
2017-06-22T09:35:26.919Z,27.25
2017-06-22T09:36:36.145Z,27.34
2017-06-22T09:37:45.044Z,27.44
2017-06-22T09:38:54.273Z,27.55
2017-06-22T09:40:03.532Z,27.77
2017-06-22T09:41:12.438Z,27.77
2017-06-22T09:42:21.990Z,27.78
2017-06-22T09:43:31.224Z,27.87
2017-06-22T09:44:40.451Z,28
2017-06-22T09:45:49.674Z,28.06
2017-06-22T09:46:58.576Z,28.18
2017-06-22T09:48:08.132Z,28.24
2017-06-22T09:49:17.032Z,28.37
2017-06-22T09:50:25.942Z,28.41
2017-06-22T09:51:35.495Z,28.43
2017-06-22T09:52:44.725Z,28.52
2017-06-22T09:53:53.633Z,28.49
2017-06-22T09:55:02.858Z,28.56
2017-06-22T09:56:11.766Z,28.36
2017-06-22T09:57:20.666Z,28.58
2017-06-22T09:58:29.568Z,28.67
2017-06-22T09:59:38.814Z,28.54
2017-06-22T10:00:47.721Z,28.3
2017-06-22T10:01:56.625Z,28.29
2017-06-22T10:03:06.080Z,27.79
2017-06-22T10:04:15.153Z,27.22
2017-06-22T10:05:24.565Z,26.89
2017-06-22T10:06:33.550Z,26.69
2017-06-22T10:07:42.449Z,26.47
2017-06-22T10:08:51.360Z,26.37
2017-06-22T10:10:00.578Z,26.25
2017-06-22T10:11:09.730Z,26.17
2017-06-22T10:12:18.637Z,25.99
2017-06-22T10:13:27.869Z,25.62
2017-06-22T10:14:37.095Z,25.54
2017-06-22T10:15:45.998Z,25.43
2017-06-22T10:16:54.981Z,25.4
2017-06-22T10:18:03.881Z,25.25
2017-06-22T10:19:12.778Z,25.06
2017-06-22T10:20:21.678Z,24.88
2017-06-22T10:21:30.902Z,24.88
2017-06-22T10:22:39.804Z,25
2017-06-22T10:23:48.706Z,24.84
2017-06-22T10:24:57.926Z,24.9
2017-06-22T10:26:07.169Z,24.78
2017-06-22T10:27:16.395Z,24.53
2017-06-22T10:28:25.545Z,24.57
2017-06-22T10:29:34.772Z,24.49
2017-06-22T10:30:44.322Z,24.53
2017-06-22T10:31:53.220Z,24.27
2017-06-22T10:33:02.119Z,24.39
2017-06-22T10:34:12.296Z,24.31
2017-06-22T10:35:21.197Z,24.34
2017-06-22T10:36:30.097Z,24.4
2017-06-22T10:37:38.994Z,24.31
2017-06-22T10:38:47.890Z,24.28
2017-06-22T10:39:56.950Z,24.28
2017-06-22T10:41:05.850Z,24.18
2017-06-22T10:42:14.781Z,24.43
2017-06-22T10:43:24.012Z,24.46
2017-06-22T10:44:33.235Z,24.47
2017-06-22T10:45:42.246Z,24.57
2017-06-22T10:46:51.150Z,24.64
2017-06-22T10:48:00.698Z,24.76
2017-06-22T10:49:09.921Z,24.76
2017-06-22T10:50:19.021Z,24.76
2017-06-22T10:51:27.968Z,24.77
2017-06-22T10:52:36.867Z,24.73
2017-06-22T10:53:46.103Z,24.87
2017-06-22T10:54:55.054Z,24.99
2017-06-22T10:56:04.278Z,25.02
2017-06-22T10:57:13.801Z,25.09
2017-06-22T10:58:22.694Z,25.13
2017-06-22T10:59:31.591Z,25.17
2017-06-22T11:00:40.488Z,25.24
2017-06-22T11:01:49.474Z,25.27
2017-06-22T11:02:59.155Z,25.42
2017-06-22T11:04:08.053Z,25.46
2017-06-22T11:05:17.279Z,25.47
2017-06-22T11:06:26.179Z,25.43
2017-06-22T11:07:35.076Z,25.4
2017-06-22T11:08:44.305Z,25.55
2017-06-22T11:09:53.530Z,25.64
2017-06-22T11:11:02.431Z,25.61
2017-06-22T11:12:11.672Z,25.51
2017-06-22T11:13:20.584Z,25.6
2017-06-22T11:14:29.633Z,25.65
2017-06-22T11:15:38.857Z,25.67
2017-06-22T11:16:47.762Z,25.83
2017-06-22T11:17:56.988Z,25.92
2017-06-22T11:19:06.212Z,25.95
2017-06-22T11:20:15.534Z,26.12
2017-06-22T11:21:24.439Z,26.12
2017-06-22T11:22:33.338Z,26.07
2017-06-22T11:23:42.234Z,26.09
2017-06-22T11:24:51.137Z,26.15
2017-06-22T11:26:00.508Z,26.15
2017-06-22T11:27:09.408Z,26.36
2017-06-22T11:28:18.307Z,26.37
2017-06-22T11:29:27.858Z,26.35
2017-06-22T11:30:37.084Z,26.44
2017-06-22T11:31:46.282Z,26.4
2017-06-22T11:32:55.178Z,26.33
2017-06-22T11:34:04.402Z,26.47
2017-06-22T11:35:13.300Z,26.52
2017-06-22T11:36:22.198Z,26.51
2017-06-22T11:37:31.803Z,26.66
2017-06-22T11:38:40.704Z,26.81
2017-06-22T11:39:49.928Z,26.82
2017-06-22T11:40:58.825Z,26.8
2017-06-22T11:42:07.726Z,26.84
2017-06-22T11:43:17.099Z,26.84
2017-06-22T11:44:25.999Z,27
2017-06-22T11:45:34.909Z,27
2017-06-22T11:46:43.810Z,26.97
2017-06-22T11:47:53.387Z,26.97
2017-06-22T11:49:02.287Z,26.92
2017-06-22T11:50:11.188Z,26.94
2017-06-22T11:51:20.414Z,27.04
2017-06-22T11:52:29.970Z,27.06
2017-06-22T11:53:38.877Z,27.13
2017-06-22T11:54:47.980Z,27.24
2017-06-22T11:55:57.205Z,27.27
2017-06-22T11:57:06.109Z,27.4
2017-06-22T11:58:15.337Z,27.44
2017-06-22T11:59:24.234Z,27.36
2017-06-22T12:00:33.609Z,27.44
2017-06-22T12:01:43.162Z,27.59
2017-06-22T12:02:52.063Z,27.77
2017-06-22T12:04:00.991Z,27.88
2017-06-22T12:05:09.899Z,28.02
2017-06-22T12:06:18.948Z,27.94
2017-06-22T12:07:27.853Z,28.04
2017-06-22T12:08:37.082Z,28.17
2017-06-22T12:09:46.314Z,28.21
2017-06-22T12:10:55.543Z,28.3
2017-06-22T12:12:04.822Z,28.37
2017-06-22T12:13:13.729Z,28.52
2017-06-22T12:14:22.636Z,28.56
2017-06-22T12:15:32.197Z,28.58
2017-06-22T12:16:41.110Z,28.55
2017-06-22T12:17:50.444Z,28.51
2017-06-22T12:18:59.672Z,28.56
2017-06-22T12:20:08.908Z,28.68
2017-06-22T12:21:17.811Z,28.81
2017-06-22T12:22:26.718Z,28.88
2017-06-22T12:23:35.783Z,29.08
2017-06-22T12:24:45.057Z,29.23
2017-06-22T12:25:53.968Z,29.23
2017-06-22T12:27:03.217Z,29.09
2017-06-22T12:28:12.451Z,29.15
2017-06-22T12:29:21.529Z,29.33
2017-06-22T12:30:30.779Z,29.51
2017-06-22T12:31:39.782Z,29.58
2017-06-22T12:32:49.017Z,29.64
2017-06-22T12:33:58.276Z,29.58
2017-06-22T12:35:07.813Z,29.46
2017-06-22T12:36:16.721Z,29.45
2017-06-22T12:37:25.631Z,29.3
2017-06-22T12:38:34.542Z,29.28
2017-06-22T12:39:43.456Z,29.08
2017-06-22T12:40:52.536Z,29.04
2017-06-22T12:42:01.474Z,28.83
2017-06-22T12:43:11.068Z,28.86
2017-06-22T12:44:20.309Z,28.76
2017-06-22T12:45:29.558Z,28.52
2017-06-22T12:46:38.760Z,28.31
2017-06-22T12:47:47.996Z,28.34
2017-06-22T12:48:56.911Z,28.3
2017-06-22T12:50:06.158Z,28.29
2017-06-22T12:51:15.078Z,28.4
2017-06-22T12:52:24.359Z,28.51
2017-06-22T12:53:33.263Z,28.62
2017-06-22T12:54:42.173Z,28.54
2017-06-22T12:55:51.084Z,28.49
2017-06-22T12:56:59.997Z,28.37
2017-06-22T12:58:08.967Z,28.34
2017-06-22T12:59:18.193Z,28.4
2017-06-22T13:00:27.429Z,28.3
2017-06-22T13:01:36.338Z,28.31
2017-06-22T13:02:45.239Z,28.48
2017-06-22T13:03:54.442Z,28.51
2017-06-22T13:05:03.347Z,28.61
2017-06-22T13:06:12.256Z,28.66
2017-06-22T13:07:21.488Z,28.77
2017-06-22T13:08:30.411Z,29.05
2017-06-22T13:09:39.345Z,29.14
2017-06-22T13:10:48.267Z,29.46
2017-06-22T13:11:57.175Z,29.55
2017-06-22T13:13:06.436Z,29.65
2017-06-22T13:14:15.349Z,29.78
2017-06-22T13:15:24.510Z,29.86
2017-06-22T13:16:33.462Z,29.92
2017-06-22T13:17:42.711Z,29.95
2017-06-22T13:18:51.970Z,29.92
2017-06-22T13:20:01.212Z,30.01
2017-06-22T13:21:10.175Z,29.98
2017-06-22T13:22:19.086Z,30.08
2017-06-22T13:23:27.995Z,30.2
2017-06-22T13:24:37.236Z,30.05
2017-06-22T13:25:46.149Z,30.15
2017-06-22T13:26:55.207Z,30.16
2017-06-22T13:28:04.474Z,30.22
2017-06-22T13:29:13.720Z,30.16
2017-06-22T13:30:22.950Z,30.08
2017-06-22T13:31:31.857Z,30.1
2017-06-22T13:32:40.917Z,30.23
2017-06-22T13:33:49.828Z,30.37
2017-06-22T13:34:58.735Z,30.43
2017-06-22T13:36:07.971Z,30.32
2017-06-22T13:37:16.880Z,30.45
2017-06-22T13:38:25.892Z,30.47
2017-06-22T13:39:35.125Z,30.43
2017-06-22T13:40:44.035Z,30.19
2017-06-22T13:41:53.270Z,30.23
2017-06-22T13:43:02.177Z,30.23
2017-06-22T13:44:11.626Z,30.35
2017-06-22T13:45:20.536Z,30.32
2017-06-22T13:46:29.442Z,30.42
2017-06-22T13:47:38.677Z,30.39
2017-06-22T13:48:47.584Z,30.55
2017-06-22T13:49:57.021Z,30.73
2017-06-22T13:51:05.926Z,30.72
2017-06-22T13:52:14.833Z,30.92
2017-06-22T13:53:23.741Z,31.01
2017-06-22T13:54:32.653Z,31.16
2017-06-22T13:55:41.658Z,30.99
2017-06-22T13:56:50.895Z,31.02
2017-06-22T13:58:00.130Z,31.1
2017-06-22T13:59:09.363Z,31.16
2017-06-22T14:00:18.592Z,31.31
2017-06-22T14:01:27.655Z,31.35
2017-06-22T14:02:36.891Z,31.32
2017-06-22T14:03:45.804Z,31.38
2017-06-22T14:04:54.715Z,31.29
2017-06-22T14:06:03.946Z,31.28
2017-06-22T14:07:13.781Z,31.36
2017-06-22T14:08:23.356Z,31.39
2017-06-22T14:09:32.602Z,31.46
2017-06-22T14:10:41.514Z,31.5
2017-06-22T14:11:51.410Z,31.72
2017-06-22T14:13:00.423Z,31.92
2017-06-22T14:14:09.662Z,32.21
2017-06-22T14:15:18.581Z,32.28
2017-06-22T14:16:27.495Z,32.56
2017-06-22T14:17:36.412Z,32.48
2017-06-22T14:18:45.864Z,32.57
2017-06-22T14:19:54.781Z,32.77
2017-06-22T14:21:04.020Z,32.79
2017-06-22T14:22:13.273Z,33.07
2017-06-22T14:23:22.521Z,33.07
2017-06-22T14:24:31.911Z,32.92
2017-06-22T14:25:41.163Z,32.96
2017-06-22T14:26:50.102Z,32.84
2017-06-22T14:27:59.037Z,32.96
2017-06-22T14:29:07.970Z,33.01
2017-06-22T14:30:17.362Z,33.18
2017-06-22T14:31:26.931Z,33.26
2017-06-22T14:32:35.846Z,33.28
2017-06-22T14:33:45.085Z,33.12
2017-06-22T14:34:54.333Z,33.12
2017-06-22T14:36:03.729Z,33
2017-06-22T14:37:13.292Z,33.11
2017-06-22T14:38:22.262Z,33.07
2017-06-22T14:39:31.200Z,33.14
2017-06-22T14:40:40.443Z,33.14
2017-06-22T14:41:49.765Z,33.04
2017-06-22T14:42:58.686Z,32.74
2017-06-22T14:44:07.928Z,32.6
2017-06-22T14:45:17.818Z,32.57
2017-06-22T14:46:27.058Z,32.79
2017-06-22T14:47:36.783Z,32.7
2017-06-22T14:48:46.348Z,32.63
2017-06-22T14:49:55.265Z,32.55
2017-06-22T14:51:05.160Z,32.62
2017-06-22T14:52:14.401Z,32.72
2017-06-22T14:53:24.119Z,32.96